Flight Track Log - Related Links

Times and Time Zones

All times are in EDT time to prevent confusion due to time zone crossing. See the CTL22 flight status page for this flight to view local times or setup timezone preferences in your user account.

Time Position Orientation Groundspeed Altitude Reporting Facility
EDT Latitude Longitude Course Direction KTS MPH feet Rate Location/Type
Fri 21:38:36 41.6406 -81.8361 297° West 104 120 6,000  Level Cleveland Center
Fri 21:39:36 41.6586 -81.8783 300° West 120 138 6,100 50 Climbing Cleveland Center
Fri 21:40:35 41.6811 -81.9289 301° West 149 171 6,100  Level Cleveland Center
Fri 21:41:36 41.6994 -81.9708 300° West 149 171 6,100  Level Cleveland Center
Fri 21:42:36 41.7217 -82.0214 301° West 154 177 6,100 -50 Level Cleveland Center
Fri 21:43:00 41.6869 -82.1330 297° West  Level Estimated
Fri 21:43:36 41.7439 -82.0719 301° West 161 185 6,000  Level Cleveland Center
Fri 21:44:00 41.7056 -82.1831 297° West  Level Estimated
Fri 21:44:36 41.7661 -82.1228 300° West 161 185 6,000  Level Cleveland Center
Fri 21:45:36 41.7883 -82.1817 297° West 161 185 5,900 -64 Descending Cleveland Center
Fri 21:46:10 41.8003 -82.2153 295° West 163 188 5,900 200 Level Cleveland Center
Fri 21:46:36 41.8064 -82.2322 296° West 161 185 6,100 111 Climbing Cleveland Center
Fri 21:47:04 41.8164 -82.2603 296° West 154 177 6,000  Descending Cleveland Center
Fri 21:47:36 41.8244 -82.2856 293° West 161 185 6,100 90 Climbing Cleveland Center
Fri 21:48:11 41.8406 -82.3139 307° West 153 176 6,100 -100 Level Cleveland Center
Fri 21:48:36 41.8464 -82.3364 289° West 155 178 6,000  Descending Cleveland Center
Fri 21:49:06 41.8608 -82.3592 310° West 154 177 6,100  Climbing Cleveland Center
Fri 21:49:36 41.8686 -82.3844 292° West 155 178 6,000  Descending Cleveland Center
Fri 21:50:07 41.8808 -82.4128 300° West 158 182 6,100 100 Climbing Cleveland Center
Fri 21:50:36 41.8886 -82.4408 290° West 155 178 6,100 -100 Level Cleveland Center
Fri 21:51:07 41.8986 -82.4717 294° West 161 185 6,000  Descending Cleveland Center
Fri 21:51:36 41.9044 -82.4942 289° West 155 178 6,100 109 Climbing Cleveland Center
Fri 21:52:02 41.9144 -82.5225 295° West 162 186 6,100 -100 Level Cleveland Center
Fri 21:52:36 41.9200 -82.5533 284° West 155 178 6,000  Descending Cleveland Center
Fri 21:53:15 41.9319 -82.5900 294° West 162 186 6,100  Climbing Cleveland Center
Fri 21:53:36 41.9381 -82.6069 296° West 155 178 6,000 -109 Descending Cleveland Center
Fri 21:54:10 41.9497 -82.6408 295° West 164 189 6,000  Level Cleveland Center
Fri 21:54:36 41.9556 -82.6633 289° West 155 178 6,000  Level Cleveland Center
Fri 21:55:17 41.9675 -82.7028 292° West 165 190 6,000  Level Cleveland Center
Fri 21:55:36 41.9714 -82.7225 285° West 160 184 6,000  Level Cleveland Center
Fri 21:56:29 41.9892 -82.7733 295° West 164 189 6,000  Level Cleveland Center
Fri 21:57:30 42.0089 -82.8300 295° West 167 192 6,000  Level Cleveland Center
Fri 21:58:19 42.0244 -82.8781 294° West 164 189 6,000  Level Cleveland Center
Fri 21:59:13 42.0422 -82.9261 296° West 164 189 6,000  Level Cleveland Center
Fri 22:00:08 42.0600 -82.9744 296° West 163 188 6,000  Level Cleveland Center
Fri 22:01:15 42.0817 -83.0397 294° West 165 190 6,000 45 Level Cleveland Center
Fri 22:02:22 42.1014 -83.0964 295° West 164 189 6,100  Climbing Cleveland Center
Fri 22:03:16 42.1211 -83.1475 297° West 163 188 6,000 -52 Descending Cleveland Center
Fri 22:04:17 42.1364 -83.2069 289° West 165 190 6,000  Level Cleveland Center
Fri 22:05:18 42.1558 -83.2608 296° West 163 188 6,000  Level Cleveland Center
Fri 22:06:12 42.1736 -83.3092 296° West 161 185 6,000  Level Cleveland Center
Fri 22:07:19 42.1950 -83.3747 294° West 162 186 6,000 47 Level Cleveland Center
Fri 22:08:20 42.2144 -83.4317 295° West 162 186 6,100  Climbing Cleveland Center
Fri 22:09:21 42.2339 -83.4858 296° West 160 184 6,000 -50 Descending Cleveland Center
Fri 22:10:21 42.2511 -83.5400 293° West 161 185 6,000  Level Cleveland Center
Fri 22:11:22 42.2706 -83.5942 296° West 159 183 6,000  Level Cleveland Center
Fri 22:12:23 42.2903 -83.6456 297° West 160 184 6,000  Level Cleveland Center
Fri 22:14:00 42.3177 -83.7315 293° West  Level FlightAware Approximate
Fri 22:21:00 42.4357 -84.1046 293° West  Level FlightAware Approximate
Fri 22:22:00 42.4527 -84.1579 295° West  Level FlightAware Approximate
Fri 22:23:00 42.4709 -84.2105 295° West  Level FlightAware Approximate
Fri 22:24:00 42.4890 -84.2631 295° West  Level FlightAware Approximate
Fri 22:25:00 42.5070 -84.3158 295° West  Level FlightAware Approximate
Fri 22:25:30 42.5322 -84.3603 295° West 163 188 6,000  Level Chicago Center
Fri 22:26:00 42.5251 -84.3685 295° West  Level FlightAware Approximate
Fri 22:26:31 42.5533 -84.4156 297° West 165 190 6,000  Level Chicago Center
Fri 22:27:00 42.5431 -84.4212 295° West  Level FlightAware Approximate
Fri 22:27:33 42.5708 -84.4731 292° West 165 190 6,000  Level Chicago Center
Fri 22:28:00 42.5611 -84.4739 295° West  Level FlightAware Approximate
Fri 22:28:34 42.5900 -84.5281 295° West 163 188 6,100  Level Chicago Center
Fri 22:29:00 42.5791 -84.5267 295° West  Level FlightAware Approximate
Fri 22:29:35 42.6139 -84.6008 294° West 174 200 5,000  Level Chicago Center
Fri 22:30:00 42.5971 -84.5795 295° West  Level FlightAware Approximate
Fri 22:30:37 42.6181 -84.6689 275° West 188 216 4,100  Level Chicago Center
Fri 22:31:38 42.6144 -84.7306 265° West 170 196 4,100 -49 Level Chicago Center
Fri 22:32:39 42.6331 -84.7844 295° West 161 185 4,000 -49 Descending Chicago Center
Fri 22:33:41 42.6508 -84.8372 295° West 156 180 4,000  Level Chicago Center
Fri 22:34:42 42.6686 -84.8917 294° West 157 181 4,000  Level Chicago Center
Fri 22:35:43 42.6869 -84.9464 295° West 159 183 4,000  Level Chicago Center
Fri 22:36:45 42.7072 -85.0014 297° West 162 186 4,000  Level Chicago Center
Fri 22:37:46 42.7256 -85.0569 294° West 163 188 4,000  Level Chicago Center
Fri 22:38:47 42.7486 -85.1250 295° West 164 189 4,000 -146 Level Chicago Center
Fri 22:39:49 42.7669 -85.1822 294° West 165 190 3,700 -341 Descending Chicago Center
Fri 22:40:50 42.7894 -85.2428 297° West 175 201 3,300 -393 Descending Chicago Center
Fri 22:41:51 42.8092 -85.3028 294° West 177 204 2,900 -393 Descending Chicago Center
Fri 22:42:52 42.8283 -85.3622 294° West 174 200 2,500 -344 Descending Chicago Center
Fri 22:43:53 42.8483 -85.4192 296° West 171 197 2,200 -585 Descending Chicago Center
Fri 22:44:55 42.8686 -85.4747 296° West 168 193 1,300 -585 Descending Chicago Center
Fri 22:45:56 42.8833 -85.5158 296° West 139 160 1,000 -295 Descending Chicago Center
Fri 22:47:00 42.8808 -85.5228 270° West  Level Estimated
Fri 22:54:00 42.8808 -85.5228 270° West  Level Estimated

Login

Don't have an account? Register now (free) for customized features, flight alerts, and more!